<?xml version="1.0" encoding="UTF-8" standalone="no" ?>
<gpx xmlns="http://www.topografix.com/GPX/1/1" xmlns:xsi="http://www.w3.org/2001/XMLSchema-instance" xsi:schemaLocation="http://www.topografix.com/GPX/1/1 http://www.topografix.com/GPX/1/1/gpx.xsd" version="1.1" creator="VisuGPX - https://www.visugpx.com">
  <metadata>
    <name>sulens et sommet</name>
    <desc><![CDATA[trace phil lacroix]]></desc>
  </metadata>
  <wpt lat="45.83967" lon="6.35822">
    <ele>1294.7</ele>
    <name><![CDATA[tourlph1 sulens et sommet]]></name>
    <type><![CDATA[Generic]]></type>
  </wpt>
  <trk>
    <name><![CDATA[tourlph1 sulens et sommet]]></name>
    <extensions>
      <line xmlns="http://www.topografix.com/GPX/gpx_style/0/2">
        <color>0000FF</color>
        <width>4</width>
      </line>
    </extensions>
    <trkseg>
      <trkpt lat="45.83967" lon="6.35822">
        <ele>1294.7</ele>
        <time>2021-08-23T19:29:18Z</time>
      </trkpt>
      <trkpt lat="45.8396" lon="6.35818">
        <ele>1294</ele>
        <time>2021-08-23T19:29:25Z</time>
      </trkpt>
      <trkpt lat="45.83929" lon="6.3581">
        <ele>1292</ele>
        <time>2021-08-23T19:29:45Z</time>
      </trkpt>
      <trkpt lat="45.83891" lon="6.3581">
        <ele>1294.3</ele>
        <time>2021-08-23T19:30:02Z</time>
      </trkpt>
      <trkpt lat="45.83869" lon="6.35796">
        <ele>1293.1</ele>
        <time>2021-08-23T19:30:19Z</time>
      </trkpt>
      <trkpt lat="45.83797" lon="6.35723">
        <ele>1278.8</ele>
        <time>2021-08-23T19:30:38Z</time>
      </trkpt>
      <trkpt lat="45.83777" lon="6.35718">
        <ele>1277.7</ele>
        <time>2021-08-23T19:30:54Z</time>
      </trkpt>
      <trkpt lat="45.83755" lon="6.35723">
        <ele>1279.2</ele>
        <time>2021-08-23T19:31:07Z</time>
      </trkpt>
      <trkpt lat="45.83731" lon="6.35724">
        <ele>1283.2</ele>
        <time>2021-08-23T19:31:22Z</time>
      </trkpt>
      <trkpt lat="45.83664" lon="6.3566">
        <ele>1271</ele>
        <time>2021-08-23T19:31:27Z</time>
      </trkpt>
      <trkpt lat="45.8363" lon="6.35618">
        <ele>1267.7</ele>
        <time>2021-08-23T19:31:31Z</time>
      </trkpt>
      <trkpt lat="45.836" lon="6.35541">
        <ele>1252.3</ele>
        <time>2021-08-23T19:31:40Z</time>
      </trkpt>
      <trkpt lat="45.83585" lon="6.35462">
        <ele>1244</ele>
        <time>2021-08-23T19:31:56Z</time>
      </trkpt>
      <trkpt lat="45.83574" lon="6.35435">
        <ele>1241.4</ele>
        <time>2021-08-23T19:32:16Z</time>
      </trkpt>
      <trkpt lat="45.83518" lon="6.35346">
        <ele>1237.3</ele>
        <time>2021-08-23T19:32:35Z</time>
      </trkpt>
      <trkpt lat="45.83469" lon="6.3529">
        <ele>1229.2</ele>
        <time>2021-08-23T19:32:42Z</time>
      </trkpt>
      <trkpt lat="45.83477" lon="6.35296">
        <ele>1231.1</ele>
        <time>2021-08-23T19:32:48Z</time>
      </trkpt>
      <trkpt lat="45.83484" lon="6.35329">
        <ele>1231.4</ele>
        <time>2021-08-23T19:32:58Z</time>
      </trkpt>
      <trkpt lat="45.83479" lon="6.35356">
        <ele>1230.9</ele>
        <time>2021-08-23T19:33:11Z</time>
      </trkpt>
      <trkpt lat="45.83425" lon="6.35408">
        <ele>1226</ele>
        <time>2021-08-23T19:33:22Z</time>
      </trkpt>
      <trkpt lat="45.83406" lon="6.35417">
        <ele>1224.8</ele>
        <time>2021-08-23T19:33:28Z</time>
      </trkpt>
      <trkpt lat="45.83386" lon="6.35423">
        <ele>1223.6</ele>
        <time>2021-08-23T19:33:37Z</time>
      </trkpt>
      <trkpt lat="45.83367" lon="6.35439">
        <ele>1224.8</ele>
        <time>2021-08-23T19:33:39Z</time>
      </trkpt>
      <trkpt lat="45.83347" lon="6.35446">
        <ele>1224.2</ele>
        <time>2021-08-23T19:33:49Z</time>
      </trkpt>
      <trkpt lat="45.833" lon="6.35437">
        <ele>1218.5</ele>
        <time>2021-08-23T19:33:55Z</time>
      </trkpt>
      <trkpt lat="45.8328" lon="6.35439">
        <ele>1217.7</ele>
        <time>2021-08-23T19:34:00Z</time>
      </trkpt>
      <trkpt lat="45.83261" lon="6.3545">
        <ele>1218.4</ele>
        <time>2021-08-23T19:34:03Z</time>
      </trkpt>
      <trkpt lat="45.83244" lon="6.35471">
        <ele>1220.7</ele>
        <time>2021-08-23T19:34:09Z</time>
      </trkpt>
      <trkpt lat="45.83221" lon="6.35525">
        <ele>1231.7</ele>
        <time>2021-08-23T19:34:26Z</time>
      </trkpt>
      <trkpt lat="45.83185" lon="6.35555">
        <ele>1235.9</ele>
        <time>2021-08-23T19:34:29Z</time>
      </trkpt>
      <trkpt lat="45.83151" lon="6.3559">
        <ele>1247.3</ele>
        <time>2021-08-23T19:34:32Z</time>
      </trkpt>
      <trkpt lat="45.83128" lon="6.35587">
        <ele>1251.9</ele>
        <time>2021-08-23T19:34:37Z</time>
      </trkpt>
      <trkpt lat="45.83076" lon="6.35532">
        <ele>1249.6</ele>
        <time>2021-08-23T19:34:41Z</time>
      </trkpt>
      <trkpt lat="45.83043" lon="6.35489">
        <ele>1248.9</ele>
        <time>2021-08-23T19:34:49Z</time>
      </trkpt>
      <trkpt lat="45.83042" lon="6.35457">
        <ele>1242.9</ele>
        <time>2021-08-23T19:35:02Z</time>
      </trkpt>
      <trkpt lat="45.83048" lon="6.35428">
        <ele>1235.6</ele>
        <time>2021-08-23T19:35:11Z</time>
      </trkpt>
      <trkpt lat="45.83038" lon="6.35389">
        <ele>1233.8</ele>
        <time>2021-08-23T19:35:31Z</time>
      </trkpt>
      <trkpt lat="45.83023" lon="6.35369">
        <ele>1236.1</ele>
        <time>2021-08-23T19:35:41Z</time>
      </trkpt>
      <trkpt lat="45.83005" lon="6.35353">
        <ele>1239.8</ele>
        <time>2021-08-23T19:35:51Z</time>
      </trkpt>
      <trkpt lat="45.82964" lon="6.35288">
        <ele>1240.1</ele>
        <time>2021-08-23T19:35:54Z</time>
      </trkpt>
      <trkpt lat="45.82928" lon="6.35262">
        <ele>1242.4</ele>
        <time>2021-08-23T19:36:13Z</time>
      </trkpt>
      <trkpt lat="45.82913" lon="6.35245">
        <ele>1242.9</ele>
        <time>2021-08-23T19:36:33Z</time>
      </trkpt>
      <trkpt lat="45.82899" lon="6.35221">
        <ele>1241.7</ele>
        <time>2021-08-23T19:36:47Z</time>
      </trkpt>
      <trkpt lat="45.82876" lon="6.3517">
        <ele>1236.9</ele>
        <time>2021-08-23T19:37:07Z</time>
      </trkpt>
      <trkpt lat="45.82858" lon="6.35153">
        <ele>1234.8</ele>
        <time>2021-08-23T19:37:26Z</time>
      </trkpt>
      <trkpt lat="45.82839" lon="6.3516">
        <ele>1235.5</ele>
        <time>2021-08-23T19:37:41Z</time>
      </trkpt>
      <trkpt lat="45.8281" lon="6.35204">
        <ele>1239</ele>
        <time>2021-08-23T19:38:00Z</time>
      </trkpt>
      <trkpt lat="45.82776" lon="6.35241">
        <ele>1244</ele>
        <time>2021-08-23T19:38:16Z</time>
      </trkpt>
      <trkpt lat="45.82754" lon="6.35251">
        <ele>1245.7</ele>
        <time>2021-08-23T19:38:31Z</time>
      </trkpt>
      <trkpt lat="45.82734" lon="6.35258">
        <ele>1247</ele>
        <time>2021-08-23T19:38:40Z</time>
      </trkpt>
      <trkpt lat="45.82707" lon="6.35246">
        <ele>1237.1</ele>
        <time>2021-08-23T19:38:43Z</time>
      </trkpt>
      <trkpt lat="45.82684" lon="6.35255">
        <ele>1237.5</ele>
        <time>2021-08-23T19:38:53Z</time>
      </trkpt>
      <trkpt lat="45.82646" lon="6.35253">
        <ele>1231.1</ele>
        <time>2021-08-23T19:38:55Z</time>
      </trkpt>
      <trkpt lat="45.82623" lon="6.35259">
        <ele>1231.4</ele>
        <time>2021-08-23T19:38:59Z</time>
      </trkpt>
      <trkpt lat="45.82601" lon="6.35272">
        <ele>1235.2</ele>
        <time>2021-08-23T19:39:18Z</time>
      </trkpt>
      <trkpt lat="45.8257" lon="6.35283">
        <ele>1234.5</ele>
        <time>2021-08-23T19:39:29Z</time>
      </trkpt>
      <trkpt lat="45.82543" lon="6.35288">
        <ele>1229</ele>
        <time>2021-08-23T19:39:48Z</time>
      </trkpt>
      <trkpt lat="45.82519" lon="6.35301">
        <ele>1227.4</ele>
        <time>2021-08-23T19:40:02Z</time>
      </trkpt>
      <trkpt lat="45.82473" lon="6.35313">
        <ele>1225.3</ele>
        <time>2021-08-23T19:40:10Z</time>
      </trkpt>
      <trkpt lat="45.82452" lon="6.35328">
        <ele>1229.4</ele>
        <time>2021-08-23T19:40:25Z</time>
      </trkpt>
      <trkpt lat="45.82428" lon="6.35337">
        <ele>1230.7</ele>
        <time>2021-08-23T19:40:39Z</time>
      </trkpt>
      <trkpt lat="45.82403" lon="6.35332">
        <ele>1231.4</ele>
        <time>2021-08-23T19:40:55Z</time>
      </trkpt>
      <trkpt lat="45.82376" lon="6.35322">
        <ele>1234</ele>
        <time>2021-08-23T19:41:00Z</time>
      </trkpt>
      <trkpt lat="45.82358" lon="6.35309">
        <ele>1233.8</ele>
        <time>2021-08-23T19:41:03Z</time>
      </trkpt>
      <trkpt lat="45.82338" lon="6.35287">
        <ele>1231.2</ele>
        <time>2021-08-23T19:41:10Z</time>
      </trkpt>
      <trkpt lat="45.8232" lon="6.35261">
        <ele>1226.8</ele>
        <time>2021-08-23T19:41:20Z</time>
      </trkpt>
      <trkpt lat="45.82307" lon="6.35234">
        <ele>1220.2</ele>
        <time>2021-08-23T19:41:24Z</time>
      </trkpt>
      <trkpt lat="45.82286" lon="6.35225">
        <ele>1220.3</ele>
        <time>2021-08-23T19:41:27Z</time>
      </trkpt>
      <trkpt lat="45.82236" lon="6.35215">
        <ele>1224.8</ele>
        <time>2021-08-23T19:41:46Z</time>
      </trkpt>
      <trkpt lat="45.82215" lon="6.35207">
        <ele>1226.7</ele>
        <time>2021-08-23T19:41:55Z</time>
      </trkpt>
      <trkpt lat="45.82195" lon="6.35189">
        <ele>1224.9</ele>
        <time>2021-08-23T19:41:57Z</time>
      </trkpt>
      <trkpt lat="45.8218" lon="6.35161">
        <ele>1219.7</ele>
        <time>2021-08-23T19:42:11Z</time>
      </trkpt>
      <trkpt lat="45.82146" lon="6.35075">
        <ele>1214.8</ele>
        <time>2021-08-23T19:42:15Z</time>
      </trkpt>
      <trkpt lat="45.82135" lon="6.35052">
        <ele>1213.6</ele>
        <time>2021-08-23T19:42:26Z</time>
      </trkpt>
      <trkpt lat="45.82121" lon="6.35033">
        <ele>1213.1</ele>
        <time>2021-08-23T19:42:33Z</time>
      </trkpt>
      <trkpt lat="45.82082" lon="6.3501">
        <ele>1215.7</ele>
        <time>2021-08-23T19:42:49Z</time>
      </trkpt>
      <trkpt lat="45.82063" lon="6.34996">
        <ele>1212.8</ele>
        <time>2021-08-23T19:43:02Z</time>
      </trkpt>
      <trkpt lat="45.8204" lon="6.35">
        <ele>1214.6</ele>
        <time>2021-08-23T19:43:07Z</time>
      </trkpt>
      <trkpt lat="45.82019" lon="6.35014">
        <ele>1219.7</ele>
        <time>2021-08-23T19:43:23Z</time>
      </trkpt>
      <trkpt lat="45.81997" lon="6.35024">
        <ele>1223.3</ele>
        <time>2021-08-23T19:43:27Z</time>
      </trkpt>
      <trkpt lat="45.81977" lon="6.3504">
        <ele>1224.9</ele>
        <time>2021-08-23T19:43:45Z</time>
      </trkpt>
      <trkpt lat="45.81966" lon="6.35053">
        <ele>1226.6</ele>
        <time>2021-08-23T19:43:58Z</time>
      </trkpt>
      <trkpt lat="45.81964" lon="6.35058">
        <ele>1227.6</ele>
        <time>2021-08-23T19:44:05Z</time>
      </trkpt>
      <trkpt lat="45.81965" lon="6.35064">
        <ele>1229.5</ele>
        <time>2021-08-23T19:44:12Z</time>
      </trkpt>
      <trkpt lat="45.81945" lon="6.35094">
        <ele>1233.4</ele>
        <time>2021-08-23T19:44:27Z</time>
      </trkpt>
      <trkpt lat="45.81934" lon="6.35115">
        <ele>1236.9</ele>
        <time>2021-08-23T19:44:43Z</time>
      </trkpt>
      <trkpt lat="45.81905" lon="6.35192">
        <ele>1252.2</ele>
        <time>2021-08-23T19:44:49Z</time>
      </trkpt>
      <trkpt lat="45.81893" lon="6.35203">
        <ele>1252.5</ele>
        <time>2021-08-23T19:45:08Z</time>
      </trkpt>
      <trkpt lat="45.81854" lon="6.3522">
        <ele>1248.3</ele>
        <time>2021-08-23T19:45:11Z</time>
      </trkpt>
      <trkpt lat="45.81781" lon="6.35296">
        <ele>1257.3</ele>
        <time>2021-08-23T19:45:18Z</time>
      </trkpt>
      <trkpt lat="45.81761" lon="6.35311">
        <ele>1259.5</ele>
        <time>2021-08-23T19:45:26Z</time>
      </trkpt>
      <trkpt lat="45.81731" lon="6.35342">
        <ele>1267.3</ele>
        <time>2021-08-23T19:45:28Z</time>
      </trkpt>
      <trkpt lat="45.81705" lon="6.35347">
        <ele>1267.8</ele>
        <time>2021-08-23T19:45:37Z</time>
      </trkpt>
      <trkpt lat="45.81685" lon="6.35364">
        <ele>1271.2</ele>
        <time>2021-08-23T19:45:40Z</time>
      </trkpt>
      <trkpt lat="45.81667" lon="6.35385">
        <ele>1274.8</ele>
        <time>2021-08-23T19:45:57Z</time>
      </trkpt>
      <trkpt lat="45.81632" lon="6.35432">
        <ele>1285.4</ele>
        <time>2021-08-23T19:46:13Z</time>
      </trkpt>
      <trkpt lat="45.81599" lon="6.35487">
        <ele>1292.7</ele>
        <time>2021-08-23T19:46:25Z</time>
      </trkpt>
      <trkpt lat="45.81589" lon="6.35512">
        <ele>1296</ele>
        <time>2021-08-23T19:46:35Z</time>
      </trkpt>
      <trkpt lat="45.81567" lon="6.35539">
        <ele>1299.1</ele>
        <time>2021-08-23T19:46:52Z</time>
      </trkpt>
      <trkpt lat="45.81534" lon="6.35595">
        <ele>1306.7</ele>
        <time>2021-08-23T19:46:57Z</time>
      </trkpt>
      <trkpt lat="45.81498" lon="6.35633">
        <ele>1303.9</ele>
        <time>2021-08-23T19:47:14Z</time>
      </trkpt>
      <trkpt lat="45.81485" lon="6.35663">
        <ele>1307.1</ele>
        <time>2021-08-23T19:47:32Z</time>
      </trkpt>
      <trkpt lat="45.81469" lon="6.35724">
        <ele>1310.1</ele>
        <time>2021-08-23T19:47:44Z</time>
      </trkpt>
      <trkpt lat="45.81441" lon="6.35771">
        <ele>1305.2</ele>
        <time>2021-08-23T19:47:55Z</time>
      </trkpt>
      <trkpt lat="45.81428" lon="6.35798">
        <ele>1303.3</ele>
        <time>2021-08-23T19:48:04Z</time>
      </trkpt>
      <trkpt lat="45.81383" lon="6.35865">
        <ele>1296.8</ele>
        <time>2021-08-23T19:48:14Z</time>
      </trkpt>
      <trkpt lat="45.81373" lon="6.35895">
        <ele>1297.9</ele>
        <time>2021-08-23T19:48:28Z</time>
      </trkpt>
      <trkpt lat="45.81349" lon="6.35942">
        <ele>1299.3</ele>
        <time>2021-08-23T19:48:46Z</time>
      </trkpt>
      <trkpt lat="45.81335" lon="6.35962">
        <ele>1300.3</ele>
        <time>2021-08-23T19:48:57Z</time>
      </trkpt>
      <trkpt lat="45.81313" lon="6.35982">
        <ele>1300.4</ele>
        <time>2021-08-23T19:48:59Z</time>
      </trkpt>
      <trkpt lat="45.81242" lon="6.36077">
        <ele>1296.9</ele>
        <time>2021-08-23T19:49:08Z</time>
      </trkpt>
      <trkpt lat="45.81226" lon="6.36105">
        <ele>1297.8</ele>
        <time>2021-08-23T19:49:19Z</time>
      </trkpt>
      <trkpt lat="45.81215" lon="6.36133">
        <ele>1299.9</ele>
        <time>2021-08-23T19:49:25Z</time>
      </trkpt>
      <trkpt lat="45.81197" lon="6.36147">
        <ele>1298.6</ele>
        <time>2021-08-23T19:49:29Z</time>
      </trkpt>
      <trkpt lat="45.81149" lon="6.36173">
        <ele>1292.8</ele>
        <time>2021-08-23T19:49:31Z</time>
      </trkpt>
      <trkpt lat="45.81277" lon="6.3623">
        <ele>1323.5</ele>
        <time>2021-08-23T19:49:38Z</time>
      </trkpt>
      <trkpt lat="45.81399" lon="6.36138">
        <ele>1343.6</ele>
        <time>2021-08-23T19:49:48Z</time>
      </trkpt>
      <trkpt lat="45.81509" lon="6.36277">
        <ele>1379.3</ele>
        <time>2021-08-23T19:49:57Z</time>
      </trkpt>
      <trkpt lat="45.81576" lon="6.36306">
        <ele>1409.7</ele>
        <time>2021-08-23T19:50:02Z</time>
      </trkpt>
      <trkpt lat="45.81656" lon="6.36268">
        <ele>1443.4</ele>
        <time>2021-08-23T19:50:14Z</time>
      </trkpt>
      <trkpt lat="45.81677" lon="6.36061">
        <ele>1478.5</ele>
        <time>2021-08-23T19:50:34Z</time>
      </trkpt>
      <trkpt lat="45.81742" lon="6.35895">
        <ele>1504.8</ele>
        <time>2021-08-23T19:50:48Z</time>
      </trkpt>
      <trkpt lat="45.81805" lon="6.36097">
        <ele>1574.4</ele>
        <time>2021-08-23T19:51:05Z</time>
      </trkpt>
      <trkpt lat="45.81957" lon="6.36388">
        <ele>1650.1</ele>
        <time>2021-08-23T19:51:13Z</time>
      </trkpt>
      <trkpt lat="45.81987" lon="6.36373">
        <ele>1666.1</ele>
        <time>2021-08-23T19:51:20Z</time>
      </trkpt>
      <trkpt lat="45.82056" lon="6.36537">
        <ele>1682.5</ele>
        <time>2021-08-23T19:51:36Z</time>
      </trkpt>
      <trkpt lat="45.82138" lon="6.36645">
        <ele>1718.4</ele>
        <time>2021-08-23T19:51:56Z</time>
      </trkpt>
      <trkpt lat="45.82259" lon="6.36773">
        <ele>1761.1</ele>
        <time>2021-08-23T19:52:09Z</time>
      </trkpt>
      <trkpt lat="45.82341" lon="6.3692">
        <ele>1738.4</ele>
        <time>2021-08-23T19:52:18Z</time>
      </trkpt>
      <trkpt lat="45.82524" lon="6.37038">
        <ele>1734.1</ele>
        <time>2021-08-23T19:52:23Z</time>
      </trkpt>
      <trkpt lat="45.82705" lon="6.37123">
        <ele>1775.7</ele>
        <time>2021-08-23T19:52:27Z</time>
      </trkpt>
      <trkpt lat="45.82925" lon="6.37157">
        <ele>1819.3</ele>
        <time>2021-08-23T19:52:40Z</time>
      </trkpt>
      <trkpt lat="45.83149" lon="6.37154">
        <ele>1803.7</ele>
        <time>2021-08-23T19:52:55Z</time>
      </trkpt>
      <trkpt lat="45.83321" lon="6.37259">
        <ele>1797.6</ele>
        <time>2021-08-23T19:52:58Z</time>
      </trkpt>
      <trkpt lat="45.83148" lon="6.37132">
        <ele>1800.1</ele>
        <time>2021-08-23T19:53:10Z</time>
      </trkpt>
      <trkpt lat="45.82952" lon="6.37005">
        <ele>1783.5</ele>
        <time>2021-08-23T19:53:12Z</time>
      </trkpt>
      <trkpt lat="45.83016" lon="6.36894">
        <ele>1742</ele>
        <time>2021-08-23T19:53:27Z</time>
      </trkpt>
      <trkpt lat="45.83073" lon="6.36865">
        <ele>1725.2</ele>
        <time>2021-08-23T19:53:35Z</time>
      </trkpt>
      <trkpt lat="45.83056" lon="6.36799">
        <ele>1702.9</ele>
        <time>2021-08-23T19:53:38Z</time>
      </trkpt>
      <trkpt lat="45.83071" lon="6.36764">
        <ele>1693.4</ele>
        <time>2021-08-23T19:53:51Z</time>
      </trkpt>
      <trkpt lat="45.83026" lon="6.36726">
        <ele>1677.9</ele>
        <time>2021-08-23T19:54:00Z</time>
      </trkpt>
      <trkpt lat="45.82974" lon="6.36752">
        <ele>1675.3</ele>
        <time>2021-08-23T19:54:04Z</time>
      </trkpt>
      <trkpt lat="45.82816" lon="6.36733">
        <ele>1641.9</ele>
        <time>2021-08-23T19:54:18Z</time>
      </trkpt>
      <trkpt lat="45.82801" lon="6.36684">
        <ele>1632</ele>
        <time>2021-08-23T19:54:37Z</time>
      </trkpt>
      <trkpt lat="45.82782" lon="6.36568">
        <ele>1620.1</ele>
        <time>2021-08-23T19:54:50Z</time>
      </trkpt>
      <trkpt lat="45.82812" lon="6.36397">
        <ele>1601.9</ele>
        <time>2021-08-23T19:54:57Z</time>
      </trkpt>
      <trkpt lat="45.82818" lon="6.36308">
        <ele>1591.6</ele>
        <time>2021-08-23T19:55:09Z</time>
      </trkpt>
      <trkpt lat="45.82743" lon="6.36291">
        <ele>1590.7</ele>
        <time>2021-08-23T19:55:22Z</time>
      </trkpt>
      <trkpt lat="45.82667" lon="6.36312">
        <ele>1582.5</ele>
        <time>2021-08-23T19:55:39Z</time>
      </trkpt>
      <trkpt lat="45.82548" lon="6.36245">
        <ele>1575.2</ele>
        <time>2021-08-23T19:55:53Z</time>
      </trkpt>
      <trkpt lat="45.8241" lon="6.36127">
        <ele>1550</ele>
        <time>2021-08-23T19:55:57Z</time>
      </trkpt>
      <trkpt lat="45.82366" lon="6.36074">
        <ele>1534.7</ele>
        <time>2021-08-23T19:56:15Z</time>
      </trkpt>
      <trkpt lat="45.82289" lon="6.36085">
        <ele>1542.9</ele>
        <time>2021-08-23T19:56:20Z</time>
      </trkpt>
      <trkpt lat="45.82212" lon="6.35997">
        <ele>1526.8</ele>
        <time>2021-08-23T19:56:26Z</time>
      </trkpt>
      <trkpt lat="45.81964" lon="6.35817">
        <ele>1504.2</ele>
        <time>2021-08-23T19:56:35Z</time>
      </trkpt>
      <trkpt lat="45.81888" lon="6.35714">
        <ele>1471.7</ele>
        <time>2021-08-23T19:56:48Z</time>
      </trkpt>
      <trkpt lat="45.82142" lon="6.35733">
        <ele>1430.3</ele>
        <time>2021-08-23T19:57:07Z</time>
      </trkpt>
      <trkpt lat="45.8204" lon="6.35583">
        <ele>1387.3</ele>
        <time>2021-08-23T19:57:11Z</time>
      </trkpt>
      <trkpt lat="45.82144" lon="6.35607">
        <ele>1369.8</ele>
        <time>2021-08-23T19:57:13Z</time>
      </trkpt>
      <trkpt lat="45.82103" lon="6.3554">
        <ele>1357.6</ele>
        <time>2021-08-23T19:57:28Z</time>
      </trkpt>
      <trkpt lat="45.81957" lon="6.35391">
        <ele>1318.6</ele>
        <time>2021-08-23T19:57:46Z</time>
      </trkpt>
      <trkpt lat="45.82018" lon="6.35382">
        <ele>1316.3</ele>
        <time>2021-08-23T19:57:48Z</time>
      </trkpt>
      <trkpt lat="45.8207" lon="6.35416">
        <ele>1319.1</ele>
        <time>2021-08-23T19:58:00Z</time>
      </trkpt>
      <trkpt lat="45.8216" lon="6.35429">
        <ele>1306.8</ele>
        <time>2021-08-23T19:58:16Z</time>
      </trkpt>
      <trkpt lat="45.82215" lon="6.35449">
        <ele>1304.1</ele>
        <time>2021-08-23T19:58:33Z</time>
      </trkpt>
      <trkpt lat="45.82192" lon="6.35412">
        <ele>1297.6</ele>
        <time>2021-08-23T19:58:35Z</time>
      </trkpt>
      <trkpt lat="45.821" lon="6.35401">
        <ele>1308.8</ele>
        <time>2021-08-23T19:58:45Z</time>
      </trkpt>
      <trkpt lat="45.81976" lon="6.35274">
        <ele>1285</ele>
        <time>2021-08-23T19:58:57Z</time>
      </trkpt>
      <trkpt lat="45.8188" lon="6.35372">
        <ele>1298</ele>
        <time>2021-08-23T19:59:06Z</time>
      </trkpt>
      <trkpt lat="45.81756" lon="6.35358">
        <ele>1274.1</ele>
        <time>2021-08-23T19:59:24Z</time>
      </trkpt>
      <trkpt lat="45.81148" lon="6.36193">
        <ele>1293.4</ele>
        <time>2021-08-23T19:59:29Z</time>
      </trkpt>
      <trkpt lat="45.81155" lon="6.3634">
        <ele>1288</ele>
        <time>2021-08-23T19:59:45Z</time>
      </trkpt>
      <trkpt lat="45.81161" lon="6.36368">
        <ele>1286.2</ele>
        <time>2021-08-23T19:59:56Z</time>
      </trkpt>
      <trkpt lat="45.81176" lon="6.36391">
        <ele>1286.8</ele>
        <time>2021-08-23T20:00:05Z</time>
      </trkpt>
      <trkpt lat="45.81195" lon="6.36406">
        <ele>1288.9</ele>
        <time>2021-08-23T20:00:14Z</time>
      </trkpt>
      <trkpt lat="45.81235" lon="6.3643">
        <ele>1293.4</ele>
        <time>2021-08-23T20:00:31Z</time>
      </trkpt>
      <trkpt lat="45.8125" lon="6.36452">
        <ele>1293.3</ele>
        <time>2021-08-23T20:00:42Z</time>
      </trkpt>
      <trkpt lat="45.81257" lon="6.3648">
        <ele>1290.3</ele>
        <time>2021-08-23T20:00:54Z</time>
      </trkpt>
      <trkpt lat="45.8127" lon="6.36502">
        <ele>1288.4</ele>
        <time>2021-08-23T20:01:13Z</time>
      </trkpt>
      <trkpt lat="45.81306" lon="6.36535">
        <ele>1287.7</ele>
        <time>2021-08-23T20:01:22Z</time>
      </trkpt>
      <trkpt lat="45.81319" lon="6.36555">
        <ele>1286.9</ele>
        <time>2021-08-23T20:01:27Z</time>
      </trkpt>
      <trkpt lat="45.81329" lon="6.36583">
        <ele>1285.4</ele>
        <time>2021-08-23T20:01:34Z</time>
      </trkpt>
      <trkpt lat="45.81335" lon="6.3661">
        <ele>1287.6</ele>
        <time>2021-08-23T20:01:36Z</time>
      </trkpt>
      <trkpt lat="45.81342" lon="6.36725">
        <ele>1292</ele>
        <time>2021-08-23T20:01:56Z</time>
      </trkpt>
      <trkpt lat="45.8134" lon="6.36754">
        <ele>1291.9</ele>
        <time>2021-08-23T20:02:05Z</time>
      </trkpt>
      <trkpt lat="45.81335" lon="6.36782">
        <ele>1290.5</ele>
        <time>2021-08-23T20:02:10Z</time>
      </trkpt>
      <trkpt lat="45.81354" lon="6.3683">
        <ele>1292.8</ele>
        <time>2021-08-23T20:02:18Z</time>
      </trkpt>
      <trkpt lat="45.81377" lon="6.36872">
        <ele>1298.6</ele>
        <time>2021-08-23T20:02:30Z</time>
      </trkpt>
      <trkpt lat="45.81384" lon="6.36926">
        <ele>1302.1</ele>
        <time>2021-08-23T20:02:50Z</time>
      </trkpt>
      <trkpt lat="45.81395" lon="6.36943">
        <ele>1304.8</ele>
        <time>2021-08-23T20:03:00Z</time>
      </trkpt>
      <trkpt lat="45.81409" lon="6.3694">
        <ele>1308.8</ele>
        <time>2021-08-23T20:03:15Z</time>
      </trkpt>
      <trkpt lat="45.81426" lon="6.36932">
        <ele>1312.5</ele>
        <time>2021-08-23T20:03:21Z</time>
      </trkpt>
      <trkpt lat="45.8144" lon="6.36929">
        <ele>1314.8</ele>
        <time>2021-08-23T20:03:38Z</time>
      </trkpt>
      <trkpt lat="45.81455" lon="6.3693">
        <ele>1317.2</ele>
        <time>2021-08-23T20:03:47Z</time>
      </trkpt>
      <trkpt lat="45.81487" lon="6.36923">
        <ele>1322.2</ele>
        <time>2021-08-23T20:03:54Z</time>
      </trkpt>
      <trkpt lat="45.81519" lon="6.36969">
        <ele>1329.8</ele>
        <time>2021-08-23T20:04:03Z</time>
      </trkpt>
      <trkpt lat="45.81529" lon="6.36994">
        <ele>1332.7</ele>
        <time>2021-08-23T20:04:18Z</time>
      </trkpt>
      <trkpt lat="45.81541" lon="6.37013">
        <ele>1335.7</ele>
        <time>2021-08-23T20:04:30Z</time>
      </trkpt>
      <trkpt lat="45.8156" lon="6.3706">
        <ele>1342.1</ele>
        <time>2021-08-23T20:04:46Z</time>
      </trkpt>
      <trkpt lat="45.81559" lon="6.37128">
        <ele>1342.9</ele>
        <time>2021-08-23T20:04:59Z</time>
      </trkpt>
      <trkpt lat="45.81573" lon="6.37174">
        <ele>1347.5</ele>
        <time>2021-08-23T20:05:11Z</time>
      </trkpt>
      <trkpt lat="45.81577" lon="6.37179">
        <ele>1348.9</ele>
        <time>2021-08-23T20:05:28Z</time>
      </trkpt>
      <trkpt lat="45.81576" lon="6.37197">
        <ele>1348.5</ele>
        <time>2021-08-23T20:05:43Z</time>
      </trkpt>
      <trkpt lat="45.81565" lon="6.37221">
        <ele>1344.8</ele>
        <time>2021-08-23T20:05:48Z</time>
      </trkpt>
      <trkpt lat="45.81563" lon="6.37238">
        <ele>1344.2</ele>
        <time>2021-08-23T20:06:06Z</time>
      </trkpt>
      <trkpt lat="45.81571" lon="6.37241">
        <ele>1346.9</ele>
        <time>2021-08-23T20:06:12Z</time>
      </trkpt>
      <trkpt lat="45.81619" lon="6.37245">
        <ele>1358.3</ele>
        <time>2021-08-23T20:06:30Z</time>
      </trkpt>
      <trkpt lat="45.81628" lon="6.37242">
        <ele>1360.2</ele>
        <time>2021-08-23T20:06:39Z</time>
      </trkpt>
      <trkpt lat="45.81627" lon="6.37248">
        <ele>1359.9</ele>
        <time>2021-08-23T20:06:47Z</time>
      </trkpt>
      <trkpt lat="45.81631" lon="6.37245">
        <ele>1360.8</ele>
        <time>2021-08-23T20:06:56Z</time>
      </trkpt>
      <trkpt lat="45.81628" lon="6.37248">
        <ele>1360.1</ele>
        <time>2021-08-23T20:07:06Z</time>
      </trkpt>
      <trkpt lat="45.81623" lon="6.37243">
        <ele>1359.1</ele>
        <time>2021-08-23T20:07:11Z</time>
      </trkpt>
      <trkpt lat="45.81648" lon="6.37266">
        <ele>1363.6</ele>
        <time>2021-08-23T20:07:21Z</time>
      </trkpt>
      <trkpt lat="45.81663" lon="6.37284">
        <ele>1366.7</ele>
        <time>2021-08-23T20:07:27Z</time>
      </trkpt>
      <trkpt lat="45.81674" lon="6.37309">
        <ele>1369.3</ele>
        <time>2021-08-23T20:07:35Z</time>
      </trkpt>
      <trkpt lat="45.81682" lon="6.37338">
        <ele>1370.6</ele>
        <time>2021-08-23T20:07:48Z</time>
      </trkpt>
      <trkpt lat="45.81693" lon="6.37363">
        <ele>1370.4</ele>
        <time>2021-08-23T20:07:59Z</time>
      </trkpt>
      <trkpt lat="45.81707" lon="6.37387">
        <ele>1371</ele>
        <time>2021-08-23T20:08:07Z</time>
      </trkpt>
      <trkpt lat="45.81717" lon="6.37444">
        <ele>1365.3</ele>
        <time>2021-08-23T20:08:13Z</time>
      </trkpt>
      <trkpt lat="45.81728" lon="6.37464">
        <ele>1365.4</ele>
        <time>2021-08-23T20:08:30Z</time>
      </trkpt>
      <trkpt lat="45.81724" lon="6.37465">
        <ele>1364</ele>
        <time>2021-08-23T20:08:47Z</time>
      </trkpt>
      <trkpt lat="45.81733" lon="6.37473">
        <ele>1365.5</ele>
        <time>2021-08-23T20:09:06Z</time>
      </trkpt>
      <trkpt lat="45.81744" lon="6.37501">
        <ele>1364.8</ele>
        <time>2021-08-23T20:09:10Z</time>
      </trkpt>
      <trkpt lat="45.81762" lon="6.37515">
        <ele>1366</ele>
        <time>2021-08-23T20:09:23Z</time>
      </trkpt>
      <trkpt lat="45.81784" lon="6.37511">
        <ele>1369.3</ele>
        <time>2021-08-23T20:09:35Z</time>
      </trkpt>
      <trkpt lat="45.81826" lon="6.37495">
        <ele>1377.2</ele>
        <time>2021-08-23T20:09:48Z</time>
      </trkpt>
      <trkpt lat="45.8186" lon="6.37486">
        <ele>1383.4</ele>
        <time>2021-08-23T20:09:50Z</time>
      </trkpt>
      <trkpt lat="45.81883" lon="6.37509">
        <ele>1381.8</ele>
        <time>2021-08-23T20:10:08Z</time>
      </trkpt>
      <trkpt lat="45.81892" lon="6.37522">
        <ele>1381.2</ele>
        <time>2021-08-23T20:10:18Z</time>
      </trkpt>
      <trkpt lat="45.81935" lon="6.37534">
        <ele>1389.2</ele>
        <time>2021-08-23T20:10:27Z</time>
      </trkpt>
      <trkpt lat="45.81939" lon="6.37538">
        <ele>1390</ele>
        <time>2021-08-23T20:10:41Z</time>
      </trkpt>
      <trkpt lat="45.81967" lon="6.37577">
        <ele>1393.6</ele>
        <time>2021-08-23T20:10:48Z</time>
      </trkpt>
      <trkpt lat="45.81995" lon="6.37641">
        <ele>1398.6</ele>
        <time>2021-08-23T20:11:08Z</time>
      </trkpt>
      <trkpt lat="45.82" lon="6.3768">
        <ele>1400.3</ele>
        <time>2021-08-23T20:11:28Z</time>
      </trkpt>
      <trkpt lat="45.81994" lon="6.37739">
        <ele>1403.7</ele>
        <time>2021-08-23T20:11:48Z</time>
      </trkpt>
      <trkpt lat="45.81996" lon="6.37767">
        <ele>1406.5</ele>
        <time>2021-08-23T20:12:07Z</time>
      </trkpt>
      <trkpt lat="45.82024" lon="6.37729">
        <ele>1417.6</ele>
        <time>2021-08-23T20:12:22Z</time>
      </trkpt>
      <trkpt lat="45.82033" lon="6.3771">
        <ele>1420.8</ele>
        <time>2021-08-23T20:12:40Z</time>
      </trkpt>
      <trkpt lat="45.82043" lon="6.37699">
        <ele>1425.2</ele>
        <time>2021-08-23T20:12:43Z</time>
      </trkpt>
      <trkpt lat="45.82046" lon="6.37701">
        <ele>1427</ele>
        <time>2021-08-23T20:12:47Z</time>
      </trkpt>
      <trkpt lat="45.82056" lon="6.37734">
        <ele>1434.7</ele>
        <time>2021-08-23T20:12:51Z</time>
      </trkpt>
      <trkpt lat="45.82055" lon="6.37755">
        <ele>1435.6</ele>
        <time>2021-08-23T20:12:56Z</time>
      </trkpt>
      <trkpt lat="45.82058" lon="6.3776">
        <ele>1437.3</ele>
        <time>2021-08-23T20:13:02Z</time>
      </trkpt>
      <trkpt lat="45.82061" lon="6.3776">
        <ele>1438.8</ele>
        <time>2021-08-23T20:13:06Z</time>
      </trkpt>
      <trkpt lat="45.82064" lon="6.37756">
        <ele>1440.2</ele>
        <time>2021-08-23T20:13:24Z</time>
      </trkpt>
      <trkpt lat="45.82068" lon="6.37729">
        <ele>1440.7</ele>
        <time>2021-08-23T20:13:33Z</time>
      </trkpt>
      <trkpt lat="45.82073" lon="6.37714">
        <ele>1442.3</ele>
        <time>2021-08-23T20:13:51Z</time>
      </trkpt>
      <trkpt lat="45.82092" lon="6.37686">
        <ele>1452.2</ele>
        <time>2021-08-23T20:13:58Z</time>
      </trkpt>
      <trkpt lat="45.82098" lon="6.37662">
        <ele>1455.3</ele>
        <time>2021-08-23T20:14:06Z</time>
      </trkpt>
      <trkpt lat="45.82097" lon="6.37613">
        <ele>1457.3</ele>
        <time>2021-08-23T20:14:09Z</time>
      </trkpt>
      <trkpt lat="45.82101" lon="6.37598">
        <ele>1460.5</ele>
        <time>2021-08-23T20:14:20Z</time>
      </trkpt>
      <trkpt lat="45.82098" lon="6.37551">
        <ele>1460.8</ele>
        <time>2021-08-23T20:14:27Z</time>
      </trkpt>
      <trkpt lat="45.82093" lon="6.37544">
        <ele>1458.5</ele>
        <time>2021-08-23T20:14:41Z</time>
      </trkpt>
      <trkpt lat="45.82086" lon="6.37523">
        <ele>1456</ele>
        <time>2021-08-23T20:14:54Z</time>
      </trkpt>
      <trkpt lat="45.82086" lon="6.3752">
        <ele>1456.1</ele>
        <time>2021-08-23T20:15:00Z</time>
      </trkpt>
      <trkpt lat="45.8209" lon="6.37518">
        <ele>1458.3</ele>
        <time>2021-08-23T20:15:04Z</time>
      </trkpt>
      <trkpt lat="45.82093" lon="6.3752">
        <ele>1459.7</ele>
        <time>2021-08-23T20:15:12Z</time>
      </trkpt>
      <trkpt lat="45.82095" lon="6.37527">
        <ele>1460.3</ele>
        <time>2021-08-23T20:15:22Z</time>
      </trkpt>
      <trkpt lat="45.8211" lon="6.3754">
        <ele>1467.6</ele>
        <time>2021-08-23T20:15:37Z</time>
      </trkpt>
      <trkpt lat="45.82119" lon="6.37554">
        <ele>1472.1</ele>
        <time>2021-08-23T20:15:47Z</time>
      </trkpt>
      <trkpt lat="45.82125" lon="6.37569">
        <ele>1475.2</ele>
        <time>2021-08-23T20:15:57Z</time>
      </trkpt>
      <trkpt lat="45.82129" lon="6.37598">
        <ele>1477.1</ele>
        <time>2021-08-23T20:16:16Z</time>
      </trkpt>
      <trkpt lat="45.82137" lon="6.3761">
        <ele>1481.8</ele>
        <time>2021-08-23T20:16:33Z</time>
      </trkpt>
      <trkpt lat="45.82146" lon="6.37609">
        <ele>1487.3</ele>
        <time>2021-08-23T20:16:38Z</time>
      </trkpt>
      <trkpt lat="45.82143" lon="6.37588">
        <ele>1485.4</ele>
        <time>2021-08-23T20:16:52Z</time>
      </trkpt>
      <trkpt lat="45.82148" lon="6.37582">
        <ele>1488.2</ele>
        <time>2021-08-23T20:17:07Z</time>
      </trkpt>
      <trkpt lat="45.82177" lon="6.37611">
        <ele>1505</ele>
        <time>2021-08-23T20:17:20Z</time>
      </trkpt>
      <trkpt lat="45.82179" lon="6.37642">
        <ele>1507.4</ele>
        <time>2021-08-23T20:17:33Z</time>
      </trkpt>
      <trkpt lat="45.8217" lon="6.37668">
        <ele>1503.9</ele>
        <time>2021-08-23T20:17:48Z</time>
      </trkpt>
      <trkpt lat="45.82171" lon="6.37688">
        <ele>1506.8</ele>
        <time>2021-08-23T20:17:55Z</time>
      </trkpt>
      <trkpt lat="45.82174" lon="6.3769">
        <ele>1508.6</ele>
        <time>2021-08-23T20:18:08Z</time>
      </trkpt>
      <trkpt lat="45.82207" lon="6.37642">
        <ele>1521.7</ele>
        <time>2021-08-23T20:18:25Z</time>
      </trkpt>
      <trkpt lat="45.82215" lon="6.37608">
        <ele>1523.4</ele>
        <time>2021-08-23T20:18:29Z</time>
      </trkpt>
      <trkpt lat="45.82216" lon="6.37578">
        <ele>1521.6</ele>
        <time>2021-08-23T20:18:37Z</time>
      </trkpt>
      <trkpt lat="45.8221" lon="6.37554">
        <ele>1516.8</ele>
        <time>2021-08-23T20:18:47Z</time>
      </trkpt>
      <trkpt lat="45.822" lon="6.37529">
        <ele>1510.6</ele>
        <time>2021-08-23T20:18:55Z</time>
      </trkpt>
      <trkpt lat="45.82203" lon="6.37518">
        <ele>1510.9</ele>
        <time>2021-08-23T20:19:11Z</time>
      </trkpt>
      <trkpt lat="45.82208" lon="6.37519">
        <ele>1513</ele>
        <time>2021-08-23T20:19:29Z</time>
      </trkpt>
      <trkpt lat="45.82221" lon="6.37537">
        <ele>1519.9</ele>
        <time>2021-08-23T20:19:48Z</time>
      </trkpt>
      <trkpt lat="45.82246" lon="6.37557">
        <ele>1532.8</ele>
        <time>2021-08-23T20:20:06Z</time>
      </trkpt>
      <trkpt lat="45.82267" lon="6.37592">
        <ele>1542.8</ele>
        <time>2021-08-23T20:20:16Z</time>
      </trkpt>
      <trkpt lat="45.82271" lon="6.37616">
        <ele>1546.4</ele>
        <time>2021-08-23T20:20:29Z</time>
      </trkpt>
      <trkpt lat="45.82288" lon="6.37665">
        <ele>1556.7</ele>
        <time>2021-08-23T20:20:38Z</time>
      </trkpt>
      <trkpt lat="45.82291" lon="6.37693">
        <ele>1561.9</ele>
        <time>2021-08-23T20:20:45Z</time>
      </trkpt>
      <trkpt lat="45.82293" lon="6.37693">
        <ele>1562.5</ele>
        <time>2021-08-23T20:20:59Z</time>
      </trkpt>
      <trkpt lat="45.82309" lon="6.3767">
        <ele>1563.6</ele>
        <time>2021-08-23T20:21:06Z</time>
      </trkpt>
      <trkpt lat="45.8233" lon="6.37657">
        <ele>1567.6</ele>
        <time>2021-08-23T20:21:25Z</time>
      </trkpt>
      <trkpt lat="45.82334" lon="6.3766">
        <ele>1569.1</ele>
        <time>2021-08-23T20:21:41Z</time>
      </trkpt>
      <trkpt lat="45.82336" lon="6.37664">
        <ele>1570.1</ele>
        <time>2021-08-23T20:21:47Z</time>
      </trkpt>
      <trkpt lat="45.82329" lon="6.3769">
        <ele>1573.4</ele>
        <time>2021-08-23T20:21:50Z</time>
      </trkpt>
      <trkpt lat="45.82328" lon="6.37707">
        <ele>1576.4</ele>
        <time>2021-08-23T20:22:10Z</time>
      </trkpt>
      <trkpt lat="45.82331" lon="6.37741">
        <ele>1584.3</ele>
        <time>2021-08-23T20:22:25Z</time>
      </trkpt>
      <trkpt lat="45.82341" lon="6.37756">
        <ele>1589.7</ele>
        <time>2021-08-23T20:22:37Z</time>
      </trkpt>
      <trkpt lat="45.82356" lon="6.37767">
        <ele>1595</ele>
        <time>2021-08-23T20:22:48Z</time>
      </trkpt>
      <trkpt lat="45.82363" lon="6.37776">
        <ele>1598.2</ele>
        <time>2021-08-23T20:23:01Z</time>
      </trkpt>
      <trkpt lat="45.82371" lon="6.37789">
        <ele>1602.2</ele>
        <time>2021-08-23T20:23:17Z</time>
      </trkpt>
      <trkpt lat="45.82378" lon="6.3781">
        <ele>1607.4</ele>
        <time>2021-08-23T20:23:30Z</time>
      </trkpt>
      <trkpt lat="45.82368" lon="6.37844">
        <ele>1609.4</ele>
        <time>2021-08-23T20:23:48Z</time>
      </trkpt>
      <trkpt lat="45.8235" lon="6.37863">
        <ele>1606.1</ele>
        <time>2021-08-23T20:23:51Z</time>
      </trkpt>
      <trkpt lat="45.82344" lon="6.37883">
        <ele>1606.7</ele>
        <time>2021-08-23T20:23:55Z</time>
      </trkpt>
      <trkpt lat="45.82345" lon="6.37892">
        <ele>1608.2</ele>
        <time>2021-08-23T20:24:07Z</time>
      </trkpt>
      <trkpt lat="45.82365" lon="6.37884">
        <ele>1614.1</ele>
        <time>2021-08-23T20:24:13Z</time>
      </trkpt>
      <trkpt lat="45.8238" lon="6.37886">
        <ele>1619.6</ele>
        <time>2021-08-23T20:24:26Z</time>
      </trkpt>
      <trkpt lat="45.82395" lon="6.37884">
        <ele>1624.6</ele>
        <time>2021-08-23T20:24:41Z</time>
      </trkpt>
      <trkpt lat="45.82414" lon="6.37885">
        <ele>1631.4</ele>
        <time>2021-08-23T20:25:01Z</time>
      </trkpt>
      <trkpt lat="45.82419" lon="6.37887">
        <ele>1633.3</ele>
        <time>2021-08-23T20:25:21Z</time>
      </trkpt>
      <trkpt lat="45.82465" lon="6.37885">
        <ele>1644.6</ele>
        <time>2021-08-23T20:25:41Z</time>
      </trkpt>
      <trkpt lat="45.82488" lon="6.37869">
        <ele>1647.3</ele>
        <time>2021-08-23T20:25:44Z</time>
      </trkpt>
      <trkpt lat="45.82506" lon="6.37861">
        <ele>1650</ele>
        <time>2021-08-23T20:25:58Z</time>
      </trkpt>
      <trkpt lat="45.82544" lon="6.37873">
        <ele>1660.4</ele>
        <time>2021-08-23T20:26:18Z</time>
      </trkpt>
      <trkpt lat="45.82554" lon="6.37872">
        <ele>1662.3</ele>
        <time>2021-08-23T20:26:26Z</time>
      </trkpt>
      <trkpt lat="45.82557" lon="6.37869">
        <ele>1662.5</ele>
        <time>2021-08-23T20:26:29Z</time>
      </trkpt>
      <trkpt lat="45.8257" lon="6.37834">
        <ele>1659.9</ele>
        <time>2021-08-23T20:26:39Z</time>
      </trkpt>
      <trkpt lat="45.82599" lon="6.37796">
        <ele>1649.4</ele>
        <time>2021-08-23T20:26:58Z</time>
      </trkpt>
      <trkpt lat="45.82615" lon="6.37792">
        <ele>1646.3</ele>
        <time>2021-08-23T20:27:15Z</time>
      </trkpt>
      <trkpt lat="45.8263" lon="6.37775">
        <ele>1640.1</ele>
        <time>2021-08-23T20:27:17Z</time>
      </trkpt>
      <trkpt lat="45.82642" lon="6.37753">
        <ele>1633.5</ele>
        <time>2021-08-23T20:27:21Z</time>
      </trkpt>
      <trkpt lat="45.82662" lon="6.37751">
        <ele>1631.6</ele>
        <time>2021-08-23T20:27:27Z</time>
      </trkpt>
      <trkpt lat="45.82677" lon="6.37763">
        <ele>1631.7</ele>
        <time>2021-08-23T20:27:30Z</time>
      </trkpt>
      <trkpt lat="45.82694" lon="6.37766">
        <ele>1629</ele>
        <time>2021-08-23T20:27:35Z</time>
      </trkpt>
      <trkpt lat="45.82727" lon="6.37759">
        <ele>1621</ele>
        <time>2021-08-23T20:27:43Z</time>
      </trkpt>
      <trkpt lat="45.82728" lon="6.37748">
        <ele>1619</ele>
        <time>2021-08-23T20:28:01Z</time>
      </trkpt>
      <trkpt lat="45.82731" lon="6.37745">
        <ele>1618.1</ele>
        <time>2021-08-23T20:28:05Z</time>
      </trkpt>
      <trkpt lat="45.82746" lon="6.37746">
        <ele>1615.3</ele>
        <time>2021-08-23T20:28:13Z</time>
      </trkpt>
      <trkpt lat="45.82743" lon="6.37731">
        <ele>1614.2</ele>
        <time>2021-08-23T20:28:25Z</time>
      </trkpt>
      <trkpt lat="45.82745" lon="6.37725">
        <ele>1613.2</ele>
        <time>2021-08-23T20:28:31Z</time>
      </trkpt>
      <trkpt lat="45.82759" lon="6.37732">
        <ele>1611.4</ele>
        <time>2021-08-23T20:28:33Z</time>
      </trkpt>
      <trkpt lat="45.82763" lon="6.37728">
        <ele>1610.3</ele>
        <time>2021-08-23T20:28:48Z</time>
      </trkpt>
      <trkpt lat="45.8276" lon="6.37706">
        <ele>1608.6</ele>
        <time>2021-08-23T20:29:03Z</time>
      </trkpt>
      <trkpt lat="45.82764" lon="6.37702">
        <ele>1607.5</ele>
        <time>2021-08-23T20:29:16Z</time>
      </trkpt>
      <trkpt lat="45.82783" lon="6.37702">
        <ele>1604.4</ele>
        <time>2021-08-23T20:29:18Z</time>
      </trkpt>
      <trkpt lat="45.82804" lon="6.37683">
        <ele>1599.5</ele>
        <time>2021-08-23T20:29:31Z</time>
      </trkpt>
      <trkpt lat="45.8281" lon="6.37686">
        <ele>1598.8</ele>
        <time>2021-08-23T20:29:38Z</time>
      </trkpt>
      <trkpt lat="45.82817" lon="6.37702">
        <ele>1598.8</ele>
        <time>2021-08-23T20:29:54Z</time>
      </trkpt>
      <trkpt lat="45.82837" lon="6.37715">
        <ele>1595.8</ele>
        <time>2021-08-23T20:30:11Z</time>
      </trkpt>
      <trkpt lat="45.82872" lon="6.37716">
        <ele>1585.4</ele>
        <time>2021-08-23T20:30:14Z</time>
      </trkpt>
      <trkpt lat="45.82883" lon="6.37703">
        <ele>1582.3</ele>
        <time>2021-08-23T20:30:33Z</time>
      </trkpt>
      <trkpt lat="45.8289" lon="6.37679">
        <ele>1580.8</ele>
        <time>2021-08-23T20:30:50Z</time>
      </trkpt>
      <trkpt lat="45.82896" lon="6.37676">
        <ele>1579.4</ele>
        <time>2021-08-23T20:30:53Z</time>
      </trkpt>
      <trkpt lat="45.82907" lon="6.37677">
        <ele>1576.7</ele>
        <time>2021-08-23T20:31:06Z</time>
      </trkpt>
      <trkpt lat="45.82922" lon="6.37687">
        <ele>1572.8</ele>
        <time>2021-08-23T20:31:25Z</time>
      </trkpt>
      <trkpt lat="45.82926" lon="6.37701">
        <ele>1571.1</ele>
        <time>2021-08-23T20:31:40Z</time>
      </trkpt>
      <trkpt lat="45.82926" lon="6.37725">
        <ele>1569.5</ele>
        <time>2021-08-23T20:31:50Z</time>
      </trkpt>
      <trkpt lat="45.82923" lon="6.37745">
        <ele>1568.9</ele>
        <time>2021-08-23T20:32:00Z</time>
      </trkpt>
      <trkpt lat="45.82926" lon="6.37751">
        <ele>1567.7</ele>
        <time>2021-08-23T20:32:05Z</time>
      </trkpt>
      <trkpt lat="45.82938" lon="6.37742">
        <ele>1565.7</ele>
        <time>2021-08-23T20:32:15Z</time>
      </trkpt>
      <trkpt lat="45.82957" lon="6.37733">
        <ele>1562.3</ele>
        <time>2021-08-23T20:32:30Z</time>
      </trkpt>
      <trkpt lat="45.82983" lon="6.37733">
        <ele>1556.7</ele>
        <time>2021-08-23T20:32:35Z</time>
      </trkpt>
      <trkpt lat="45.82999" lon="6.37716">
        <ele>1555.3</ele>
        <time>2021-08-23T20:32:48Z</time>
      </trkpt>
      <trkpt lat="45.83005" lon="6.37691">
        <ele>1558.2</ele>
        <time>2021-08-23T20:33:03Z</time>
      </trkpt>
      <trkpt lat="45.83023" lon="6.3768">
        <ele>1560.3</ele>
        <time>2021-08-23T20:33:15Z</time>
      </trkpt>
      <trkpt lat="45.83042" lon="6.37688">
        <ele>1559.8</ele>
        <time>2021-08-23T20:33:33Z</time>
      </trkpt>
      <trkpt lat="45.83095" lon="6.37738">
        <ele>1552.7</ele>
        <time>2021-08-23T20:33:49Z</time>
      </trkpt>
      <trkpt lat="45.83113" lon="6.37775">
        <ele>1545.8</ele>
        <time>2021-08-23T20:34:03Z</time>
      </trkpt>
      <trkpt lat="45.83148" lon="6.37789">
        <ele>1542.8</ele>
        <time>2021-08-23T20:34:15Z</time>
      </trkpt>
      <trkpt lat="45.83164" lon="6.37808">
        <ele>1537.7</ele>
        <time>2021-08-23T20:34:32Z</time>
      </trkpt>
      <trkpt lat="45.83184" lon="6.37822">
        <ele>1533.1</ele>
        <time>2021-08-23T20:34:40Z</time>
      </trkpt>
      <trkpt lat="45.83207" lon="6.37825">
        <ele>1531</ele>
        <time>2021-08-23T20:34:52Z</time>
      </trkpt>
      <trkpt lat="45.83231" lon="6.37816">
        <ele>1533.2</ele>
        <time>2021-08-23T20:34:57Z</time>
      </trkpt>
      <trkpt lat="45.83251" lon="6.37828">
        <ele>1527.3</ele>
        <time>2021-08-23T20:35:04Z</time>
      </trkpt>
      <trkpt lat="45.8329" lon="6.37864">
        <ele>1520.6</ele>
        <time>2021-08-23T20:35:19Z</time>
      </trkpt>
      <trkpt lat="45.83309" lon="6.37875">
        <ele>1518.4</ele>
        <time>2021-08-23T20:35:29Z</time>
      </trkpt>
      <trkpt lat="45.8333" lon="6.37884">
        <ele>1516</ele>
        <time>2021-08-23T20:35:44Z</time>
      </trkpt>
      <trkpt lat="45.83349" lon="6.37896">
        <ele>1513.8</ele>
        <time>2021-08-23T20:36:00Z</time>
      </trkpt>
      <trkpt lat="45.83391" lon="6.37893">
        <ele>1514.6</ele>
        <time>2021-08-23T20:36:18Z</time>
      </trkpt>
      <trkpt lat="45.8342" lon="6.37918">
        <ele>1510.9</ele>
        <time>2021-08-23T20:36:37Z</time>
      </trkpt>
      <trkpt lat="45.8344" lon="6.37929">
        <ele>1509.5</ele>
        <time>2021-08-23T20:36:46Z</time>
      </trkpt>
      <trkpt lat="45.83452" lon="6.37949">
        <ele>1506.1</ele>
        <time>2021-08-23T20:36:57Z</time>
      </trkpt>
      <trkpt lat="45.8347" lon="6.38001">
        <ele>1497.6</ele>
        <time>2021-08-23T20:37:03Z</time>
      </trkpt>
      <trkpt lat="45.83484" lon="6.38022">
        <ele>1493.4</ele>
        <time>2021-08-23T20:37:10Z</time>
      </trkpt>
      <trkpt lat="45.83503" lon="6.38037">
        <ele>1491.3</ele>
        <time>2021-08-23T20:37:22Z</time>
      </trkpt>
      <trkpt lat="45.83524" lon="6.38038">
        <ele>1489.9</ele>
        <time>2021-08-23T20:37:37Z</time>
      </trkpt>
      <trkpt lat="45.83545" lon="6.3803">
        <ele>1491.2</ele>
        <time>2021-08-23T20:37:41Z</time>
      </trkpt>
      <trkpt lat="45.83566" lon="6.38026">
        <ele>1491.1</ele>
        <time>2021-08-23T20:37:59Z</time>
      </trkpt>
      <trkpt lat="45.83605" lon="6.38009">
        <ele>1491.5</ele>
        <time>2021-08-23T20:38:03Z</time>
      </trkpt>
      <trkpt lat="45.83626" lon="6.38016">
        <ele>1487.1</ele>
        <time>2021-08-23T20:38:19Z</time>
      </trkpt>
      <trkpt lat="45.8364" lon="6.38037">
        <ele>1481.4</ele>
        <time>2021-08-23T20:38:38Z</time>
      </trkpt>
      <trkpt lat="45.83652" lon="6.38061">
        <ele>1476.2</ele>
        <time>2021-08-23T20:38:53Z</time>
      </trkpt>
      <trkpt lat="45.83657" lon="6.38092">
        <ele>1471.1</ele>
        <time>2021-08-23T20:38:59Z</time>
      </trkpt>
      <trkpt lat="45.83665" lon="6.38112">
        <ele>1468.2</ele>
        <time>2021-08-23T20:39:04Z</time>
      </trkpt>
      <trkpt lat="45.83691" lon="6.38115">
        <ele>1464.2</ele>
        <time>2021-08-23T20:39:08Z</time>
      </trkpt>
      <trkpt lat="45.83708" lon="6.38113">
        <ele>1461.8</ele>
        <time>2021-08-23T20:39:26Z</time>
      </trkpt>
      <trkpt lat="45.83741" lon="6.38093">
        <ele>1458.6</ele>
        <time>2021-08-23T20:39:33Z</time>
      </trkpt>
      <trkpt lat="45.83755" lon="6.38101">
        <ele>1455.2</ele>
        <time>2021-08-23T20:39:51Z</time>
      </trkpt>
      <trkpt lat="45.83763" lon="6.38109">
        <ele>1452.4</ele>
        <time>2021-08-23T20:40:11Z</time>
      </trkpt>
      <trkpt lat="45.83773" lon="6.38104">
        <ele>1450.1</ele>
        <time>2021-08-23T20:40:18Z</time>
      </trkpt>
      <trkpt lat="45.83782" lon="6.38106">
        <ele>1447.6</ele>
        <time>2021-08-23T20:40:31Z</time>
      </trkpt>
      <trkpt lat="45.83789" lon="6.38121">
        <ele>1445.1</ele>
        <time>2021-08-23T20:40:45Z</time>
      </trkpt>
      <trkpt lat="45.83799" lon="6.38125">
        <ele>1442.4</ele>
        <time>2021-08-23T20:40:48Z</time>
      </trkpt>
      <trkpt lat="45.83808" lon="6.38121">
        <ele>1440.3</ele>
        <time>2021-08-23T20:40:55Z</time>
      </trkpt>
      <trkpt lat="45.83819" lon="6.38099">
        <ele>1437.9</ele>
        <time>2021-08-23T20:40:59Z</time>
      </trkpt>
      <trkpt lat="45.83817" lon="6.38076">
        <ele>1438.9</ele>
        <time>2021-08-23T20:41:14Z</time>
      </trkpt>
      <trkpt lat="45.83825" lon="6.38047">
        <ele>1437.1</ele>
        <time>2021-08-23T20:41:18Z</time>
      </trkpt>
      <trkpt lat="45.83837" lon="6.38024">
        <ele>1433.5</ele>
        <time>2021-08-23T20:41:38Z</time>
      </trkpt>
      <trkpt lat="45.83852" lon="6.38007">
        <ele>1428.6</ele>
        <time>2021-08-23T20:41:46Z</time>
      </trkpt>
      <trkpt lat="45.83867" lon="6.37994">
        <ele>1424.8</ele>
        <time>2021-08-23T20:41:54Z</time>
      </trkpt>
      <trkpt lat="45.8387" lon="6.37994">
        <ele>1423.8</ele>
        <time>2021-08-23T20:42:00Z</time>
      </trkpt>
      <trkpt lat="45.83878" lon="6.37999">
        <ele>1420.2</ele>
        <time>2021-08-23T20:42:02Z</time>
      </trkpt>
      <trkpt lat="45.8389" lon="6.38024">
        <ele>1415.3</ele>
        <time>2021-08-23T20:42:07Z</time>
      </trkpt>
      <trkpt lat="45.83894" lon="6.38028">
        <ele>1413.8</ele>
        <time>2021-08-23T20:42:17Z</time>
      </trkpt>
      <trkpt lat="45.83917" lon="6.38016">
        <ele>1406.3</ele>
        <time>2021-08-23T20:42:33Z</time>
      </trkpt>
      <trkpt lat="45.83931" lon="6.37993">
        <ele>1403.2</ele>
        <time>2021-08-23T20:42:50Z</time>
      </trkpt>
      <trkpt lat="45.8395" lon="6.37945">
        <ele>1401.9</ele>
        <time>2021-08-23T20:42:56Z</time>
      </trkpt>
      <trkpt lat="45.83986" lon="6.37872">
        <ele>1398.5</ele>
        <time>2021-08-23T20:43:03Z</time>
      </trkpt>
      <trkpt lat="45.84002" lon="6.37851">
        <ele>1392.9</ele>
        <time>2021-08-23T20:43:13Z</time>
      </trkpt>
      <trkpt lat="45.84026" lon="6.37831">
        <ele>1386</ele>
        <time>2021-08-23T20:43:18Z</time>
      </trkpt>
      <trkpt lat="45.84038" lon="6.37817">
        <ele>1382.3</ele>
        <time>2021-08-23T20:43:26Z</time>
      </trkpt>
      <trkpt lat="45.8405" lon="6.37797">
        <ele>1378.1</ele>
        <time>2021-08-23T20:43:37Z</time>
      </trkpt>
      <trkpt lat="45.84081" lon="6.37756">
        <ele>1362.5</ele>
        <time>2021-08-23T20:43:47Z</time>
      </trkpt>
      <trkpt lat="45.84092" lon="6.37732">
        <ele>1358.3</ele>
        <time>2021-08-23T20:43:49Z</time>
      </trkpt>
      <trkpt lat="45.84105" lon="6.37687">
        <ele>1353.8</ele>
        <time>2021-08-23T20:44:07Z</time>
      </trkpt>
      <trkpt lat="45.84116" lon="6.37687">
        <ele>1350.5</ele>
        <time>2021-08-23T20:44:15Z</time>
      </trkpt>
      <trkpt lat="45.8412" lon="6.37694">
        <ele>1349.5</ele>
        <time>2021-08-23T20:44:34Z</time>
      </trkpt>
      <trkpt lat="45.84133" lon="6.37733">
        <ele>1346.4</ele>
        <time>2021-08-23T20:44:51Z</time>
      </trkpt>
      <trkpt lat="45.84157" lon="6.37775">
        <ele>1341.4</ele>
        <time>2021-08-23T20:45:07Z</time>
      </trkpt>
      <trkpt lat="45.84195" lon="6.37867">
        <ele>1335.3</ele>
        <time>2021-08-23T20:45:27Z</time>
      </trkpt>
      <trkpt lat="45.8421" lon="6.37888">
        <ele>1330.9</ele>
        <time>2021-08-23T20:45:32Z</time>
      </trkpt>
      <trkpt lat="45.84232" lon="6.37882">
        <ele>1326.4</ele>
        <time>2021-08-23T20:45:39Z</time>
      </trkpt>
      <trkpt lat="45.84252" lon="6.37882">
        <ele>1322.2</ele>
        <time>2021-08-23T20:45:47Z</time>
      </trkpt>
      <trkpt lat="45.84285" lon="6.37915">
        <ele>1315.9</ele>
        <time>2021-08-23T20:46:05Z</time>
      </trkpt>
      <trkpt lat="45.84291" lon="6.37916">
        <ele>1315.1</ele>
        <time>2021-08-23T20:46:23Z</time>
      </trkpt>
      <trkpt lat="45.84299" lon="6.3791">
        <ele>1314.4</ele>
        <time>2021-08-23T20:46:41Z</time>
      </trkpt>
      <trkpt lat="45.84303" lon="6.379">
        <ele>1314.3</ele>
        <time>2021-08-23T20:46:51Z</time>
      </trkpt>
      <trkpt lat="45.84314" lon="6.37836">
        <ele>1315.2</ele>
        <time>2021-08-23T20:46:59Z</time>
      </trkpt>
      <trkpt lat="45.84354" lon="6.37768">
        <ele>1308.4</ele>
        <time>2021-08-23T20:47:08Z</time>
      </trkpt>
      <trkpt lat="45.84372" lon="6.37749">
        <ele>1306.1</ele>
        <time>2021-08-23T20:47:17Z</time>
      </trkpt>
      <trkpt lat="45.84384" lon="6.37723">
        <ele>1301.8</ele>
        <time>2021-08-23T20:47:25Z</time>
      </trkpt>
      <trkpt lat="45.8438" lon="6.37708">
        <ele>1300.2</ele>
        <time>2021-08-23T20:47:33Z</time>
      </trkpt>
      <trkpt lat="45.84371" lon="6.37694">
        <ele>1299.4</ele>
        <time>2021-08-23T20:47:35Z</time>
      </trkpt>
      <trkpt lat="45.84353" lon="6.37685">
        <ele>1300.4</ele>
        <time>2021-08-23T20:47:40Z</time>
      </trkpt>
      <trkpt lat="45.84332" lon="6.37679">
        <ele>1302.4</ele>
        <time>2021-08-23T20:47:42Z</time>
      </trkpt>
      <trkpt lat="45.84314" lon="6.37664">
        <ele>1304.3</ele>
        <time>2021-08-23T20:48:02Z</time>
      </trkpt>
      <trkpt lat="45.84304" lon="6.37643">
        <ele>1302.8</ele>
        <time>2021-08-23T20:48:07Z</time>
      </trkpt>
      <trkpt lat="45.84299" lon="6.37626">
        <ele>1301.1</ele>
        <time>2021-08-23T20:48:12Z</time>
      </trkpt>
      <trkpt lat="45.84276" lon="6.3759">
        <ele>1300.7</ele>
        <time>2021-08-23T20:48:21Z</time>
      </trkpt>
      <trkpt lat="45.8427" lon="6.37576">
        <ele>1299.1</ele>
        <time>2021-08-23T20:48:39Z</time>
      </trkpt>
      <trkpt lat="45.84256" lon="6.37515">
        <ele>1284.8</ele>
        <time>2021-08-23T20:48:43Z</time>
      </trkpt>
      <trkpt lat="45.84227" lon="6.37451">
        <ele>1273.2</ele>
        <time>2021-08-23T20:48:51Z</time>
      </trkpt>
      <trkpt lat="45.84203" lon="6.37409">
        <ele>1265.7</ele>
        <time>2021-08-23T20:48:58Z</time>
      </trkpt>
      <trkpt lat="45.84168" lon="6.37329">
        <ele>1253.2</ele>
        <time>2021-08-23T20:49:14Z</time>
      </trkpt>
      <trkpt lat="45.8416" lon="6.373">
        <ele>1251.6</ele>
        <time>2021-08-23T20:49:16Z</time>
      </trkpt>
      <trkpt lat="45.84145" lon="6.37213">
        <ele>1245.4</ele>
        <time>2021-08-23T20:49:25Z</time>
      </trkpt>
      <trkpt lat="45.8415" lon="6.37182">
        <ele>1238.9</ele>
        <time>2021-08-23T20:49:29Z</time>
      </trkpt>
      <trkpt lat="45.84148" lon="6.37152">
        <ele>1236.7</ele>
        <time>2021-08-23T20:49:35Z</time>
      </trkpt>
      <trkpt lat="45.8413" lon="6.37098">
        <ele>1240.6</ele>
        <time>2021-08-23T20:49:40Z</time>
      </trkpt>
      <trkpt lat="45.84098" lon="6.37018">
        <ele>1241.7</ele>
        <time>2021-08-23T20:49:48Z</time>
      </trkpt>
      <trkpt lat="45.84091" lon="6.3699">
        <ele>1239.3</ele>
        <time>2021-08-23T20:50:02Z</time>
      </trkpt>
      <trkpt lat="45.84081" lon="6.36967">
        <ele>1239.5</ele>
        <time>2021-08-23T20:50:15Z</time>
      </trkpt>
      <trkpt lat="45.84068" lon="6.36943">
        <ele>1240.4</ele>
        <time>2021-08-23T20:50:17Z</time>
      </trkpt>
      <trkpt lat="45.84057" lon="6.36916">
        <ele>1240</ele>
        <time>2021-08-23T20:50:35Z</time>
      </trkpt>
      <trkpt lat="45.84041" lon="6.369">
        <ele>1242.9</ele>
        <time>2021-08-23T20:50:48Z</time>
      </trkpt>
      <trkpt lat="45.84038" lon="6.36893">
        <ele>1243.2</ele>
        <time>2021-08-23T20:51:04Z</time>
      </trkpt>
      <trkpt lat="45.84038" lon="6.368">
        <ele>1238.5</ele>
        <time>2021-08-23T20:51:18Z</time>
      </trkpt>
      <trkpt lat="45.84026" lon="6.36738">
        <ele>1238.5</ele>
        <time>2021-08-23T20:51:38Z</time>
      </trkpt>
      <trkpt lat="45.84013" lon="6.36687">
        <ele>1241.2</ele>
        <time>2021-08-23T20:51:46Z</time>
      </trkpt>
      <trkpt lat="45.84028" lon="6.3662">
        <ele>1240.8</ele>
        <time>2021-08-23T20:51:51Z</time>
      </trkpt>
      <trkpt lat="45.84053" lon="6.36563">
        <ele>1237.8</ele>
        <time>2021-08-23T20:52:03Z</time>
      </trkpt>
      <trkpt lat="45.84061" lon="6.36528">
        <ele>1239.8</ele>
        <time>2021-08-23T20:52:10Z</time>
      </trkpt>
      <trkpt lat="45.84061" lon="6.36493">
        <ele>1244.8</ele>
        <time>2021-08-23T20:52:27Z</time>
      </trkpt>
      <trkpt lat="45.84052" lon="6.36423">
        <ele>1254.7</ele>
        <time>2021-08-23T20:52:32Z</time>
      </trkpt>
      <trkpt lat="45.84039" lon="6.36375">
        <ele>1263.3</ele>
        <time>2021-08-23T20:52:35Z</time>
      </trkpt>
      <trkpt lat="45.8404" lon="6.36357">
        <ele>1263.5</ele>
        <time>2021-08-23T20:52:52Z</time>
      </trkpt>
      <trkpt lat="45.84037" lon="6.36343">
        <ele>1265.4</ele>
        <time>2021-08-23T20:53:09Z</time>
      </trkpt>
      <trkpt lat="45.84036" lon="6.36307">
        <ele>1266</ele>
        <time>2021-08-23T20:53:27Z</time>
      </trkpt>
      <trkpt lat="45.84039" lon="6.36282">
        <ele>1264.6</ele>
        <time>2021-08-23T20:53:42Z</time>
      </trkpt>
      <trkpt lat="45.84039" lon="6.36223">
        <ele>1264.5</ele>
        <time>2021-08-23T20:53:56Z</time>
      </trkpt>
      <trkpt lat="45.84035" lon="6.36196">
        <ele>1265.8</ele>
        <time>2021-08-23T20:54:10Z</time>
      </trkpt>
      <trkpt lat="45.84017" lon="6.36154">
        <ele>1271.5</ele>
        <time>2021-08-23T20:54:24Z</time>
      </trkpt>
      <trkpt lat="45.84002" lon="6.36128">
        <ele>1275.5</ele>
        <time>2021-08-23T20:54:32Z</time>
      </trkpt>
      <trkpt lat="45.83999" lon="6.36091">
        <ele>1275.7</ele>
        <time>2021-08-23T20:54:47Z</time>
      </trkpt>
      <trkpt lat="45.83987" lon="6.36039">
        <ele>1281.4</ele>
        <time>2021-08-23T20:55:06Z</time>
      </trkpt>
      <trkpt lat="45.83983" lon="6.36007">
        <ele>1282.3</ele>
        <time>2021-08-23T20:55:19Z</time>
      </trkpt>
      <trkpt lat="45.83989" lon="6.35926">
        <ele>1289.7</ele>
        <time>2021-08-23T20:55:25Z</time>
      </trkpt>
      <trkpt lat="45.84013" lon="6.35873">
        <ele>1291.4</ele>
        <time>2021-08-23T20:55:40Z</time>
      </trkpt>
      <trkpt lat="45.84004" lon="6.35849">
        <ele>1294.4</ele>
        <time>2021-08-23T20:55:56Z</time>
      </trkpt>
      <trkpt lat="45.83987" lon="6.35833">
        <ele>1296.1</ele>
        <time>2021-08-23T20:56:15Z</time>
      </trkpt>
      <trkpt lat="45.83979" lon="6.35828">
        <ele>1295.6</ele>
        <time>2021-08-23T20:56:31Z</time>
      </trkpt>
      <trkpt lat="45.83972" lon="6.35828">
        <ele>1295.6</ele>
        <time>2021-08-23T20:56:40Z</time>
      </trkpt>
    </trkseg>
  </trk>
</gpx>